»·PEaware :: N5GL KBFL-KSNA

N5GL :: KBFL-KSNA

FLIGHT INFORMATION

Flight Status: Arrived
Operator: Privately registered:
United States
More flights under this callsign
Pilot: Georg L. (13308)
Aircraft: SOCATA TBM-900
(TBM9)
More flights by this aircraft type
Origin: KBFL Meadows
United States
Destination: KSNA John Wayne-Orange Co
United States
More flights between these airports :: More routes between these airports
Route: LHS V459 SLI
File this flight plan on PilotEdge
Remarks:
Altitude:
(Current/Filed)
21,000ft
Speed:
(Current/Filed)
303kts
Departed: 18-Apr-20 11:21 AM
Arrived: 18-Apr-20 11:59 AM
Distance/Time
Traveled:
121nm/0:38
Distance/Time
To Go:
Arrived

Flight Plot

Page will automatically refresh every two minutes.


Map Options




Map Legend


Flown Route
Filed Route
Departure Airport
Arrival Airport
Navaid (VOR, NDB)
Fix

Horizontal Profiles

Position Reports

Time Latitude Longitude Heading Altitude Ground
Speed
18-Apr-20 11:05 35.430008 -119.047257 134 498ft 0kts
18-Apr-20 11:06 35.430008 -119.047257 134 498ft 0kts
18-Apr-20 11:07 35.430008 -119.047257 134 498ft 0kts
18-Apr-20 11:08 35.430008 -119.047257 134 498ft 0kts
18-Apr-20 11:09 35.430008 -119.047257 134 498ft 0kts
18-Apr-20 11:10 35.430008 -119.047257 134 498ft 0kts
18-Apr-20 11:11 35.430008 -119.047257 134 498ft 0kts
18-Apr-20 11:12 35.430008 -119.047256 134 498ft 0kts
18-Apr-20 11:13 35.430008 -119.047256 134 498ft 0kts
18-Apr-20 11:14 35.429678 -119.047382 225 498ft 4kts
18-Apr-20 11:15 35.427649 -119.046457 135 498ft 20kts
18-Apr-20 11:16 35.425756 -119.045108 225 498ft 0kts
18-Apr-20 11:17 35.425756 -119.045108 225 498ft 0kts
18-Apr-20 11:18 35.425756 -119.045108 225 498ft 0kts
18-Apr-20 11:19 35.425738 -119.045131 225 498ft 3kts
18-Apr-20 11:20 35.435212 -119.058348 313 988ft 111kts
18-Apr-20 11:21 35.460327 -119.088963 315 3089ft 144kts
18-Apr-20 11:22 35.440555 -119.117604 153 4741ft 189kts
18-Apr-20 11:23 35.393281 -119.085613 149 6596ft 198kts
18-Apr-20 11:24 35.345410 -119.051201 149 8456ft 202kts
18-Apr-20 11:25 35.296316 -119.015771 148 10103ft 207kts
18-Apr-20 11:26 35.245748 -118.979306 148 11847ft 213kts
18-Apr-20 11:27 35.194043 -118.942081 147 13558ft 221kts
18-Apr-20 11:28 35.140100 -118.903292 147 15273ft 228kts
18-Apr-20 11:29 35.084573 -118.863418 146 16933ft 236kts
18-Apr-20 11:30 35.027015 -118.822144 146 18504ft 245kts
18-Apr-20 11:31 34.965914 -118.778324 148 19821ft 265kts
18-Apr-20 11:32 34.900021 -118.731149 153 21148ft 286kts
18-Apr-20 11:33 34.848083 -118.694297 154 21157ft 319kts
18-Apr-20 11:34 34.768789 -118.637884 154 21132ft 336kts
18-Apr-20 11:35 34.682370 -118.576651 153 18556ft 379kts
18-Apr-20 11:36 34.589885 -118.522348 156 15700ft 359kts
18-Apr-20 11:38 34.502566 -118.471245 155 13064ft 334kts
18-Apr-20 11:39 34.424345 -118.425552 155 12747ft 306kts
18-Apr-20 11:40 34.345869 -118.379830 155 11259ft 312kts
18-Apr-20 11:41 34.271987 -118.336833 155 11013ft 287kts
18-Apr-20 11:42 34.200858 -118.295556 155 11009ft 281kts
18-Apr-20 11:43 34.130653 -118.254893 155 11011ft 281kts
18-Apr-20 11:44 34.062056 -118.215216 155 11014ft 281kts
18-Apr-20 11:45 33.993632 -118.175725 155 9907ft 301kts
18-Apr-20 11:46 33.931465 -118.150678 181 8664ft 288kts
18-Apr-20 11:47 33.864799 -118.121581 108 7144ft 287kts
18-Apr-20 11:48 33.847848 -118.031671 101 5699ft 281kts
18-Apr-20 11:49 33.830934 -117.937885 101 4144ft 259kts
18-Apr-20 11:50 33.843716 -117.864294 51 3150ft 196kts
18-Apr-20 11:51 33.874959 -117.813297 51 3034ft 187kts
18-Apr-20 11:52 33.871434 -117.763890 168 2997ft 183kts
18-Apr-20 11:53 33.824407 -117.774582 211 3006ft 166kts
18-Apr-20 11:54 33.791421 -117.795490 211 2519ft 102kts
18-Apr-20 11:55 33.763499 -117.813201 210 1891ft 118kts
18-Apr-20 11:56 33.736004 -117.830620 209 1291ft 111kts
18-Apr-20 11:57 33.708887 -117.847796 209 700ft 110kts
18-Apr-20 11:57 33.688982 -117.860419 207 267ft 86kts
18-Apr-20 11:59 33.674299 -117.868415 138 59ft 0kts
18-Apr-20 12:00 33.673996 -117.867810 117 59ft 11kts
18-Apr-20 12:01 33.672321 -117.867989 209 59ft 13kts
18-Apr-20 12:01 33.668900 -117.871158 220 59ft 22kts
18-Apr-20 12:02 33.666271 -117.873334 121 59ft 9kts
18-Apr-20 12:04 33.666118 -117.872713 26 59ft 0kts
18-Apr-20 12:04 33.666118 -117.872713 26 59ft 0kts
18-Apr-20 12:05 33.666118 -117.872713 26 59ft 0kts
18-Apr-20 12:06 33.666118 -117.872713 26 59ft 0kts
18-Apr-20 12:07 33.665881 -117.872585 337 59ft 1kts
18-Apr-20 12:08 33.665695 -117.872562 0 59ft 0kts
18-Apr-20 12:09 33.665695 -117.872562 0 59ft 0kts
18-Apr-20 12:10 33.665695 -117.872562 0 59ft 0kts

Navigation Log

Ident Type
Flight plan parsing failed, navigation log unavailable